Time;durP1;ratioP1;P1;durP2;ratioP2;P2;SDS_P1;SDS_P2;PMS_P1;PMS_P2;Temp;Humidity;BMP_temperature;BMP_pressure;BME280_temperature;BME280_humidity;BME280_pressure;Samples;Min_cycle;Max_cycle;Signal;HPM_P1;HPM_P2
2022/04/26 03:36:54;;;;;;;36.00;27.02;;;9.20;99.90;;;;;;4913126;29;20446;-62
2022/04/26 03:39:20;;;;;;;29.80;26.77;;;9.20;99.90;;;;;;4915623;29;20048;-62
2022/04/26 03:41:45;;;;;;;31.88;27.40;;;9.10;99.90;;;;;;4915369;29;20055;-62
2022/04/26 03:44:11;;;;;;;34.20;26.63;;;9.10;99.90;;;;;;4970808;28;20558;-63
2022/04/26 03:46:36;;;;;;;32.15;27.50;;;9.10;99.90;;;;;;4992457;28;20109;-63
2022/04/26 03:49:02;;;;;;;33.28;27.08;;;9.10;99.90;;;;;;4992184;28;20547;-64
2022/04/26 03:51:28;;;;;;;33.15;26.88;;;9.10;99.90;;;;;;4996520;28;20106;-62
2022/04/26 03:53:54;;;;;;;31.35;26.67;;;9.10;99.90;;;;;;4994936;28;20579;-63
2022/04/26 03:56:20;;;;;;;31.35;26.92;;;9.10;99.90;;;;;;4994834;28;20034;-63
2022/04/26 03:58:46;;;;;;;32.97;27.20;;;9.10;99.90;;;;;;4994783;28;20038;-64
2022/04/26 04:01:11;;;;;;;30.92;27.65;;;9.00;99.90;;;;;;4991042;28;20194;-63
2022/04/26 04:03:38;;;;;;;30.48;26.42;;;9.00;99.90;;;;;;5006005;28;20041;-62
2022/04/26 04:06:04;;;;;;;30.65;27.40;;;9.00;99.90;;;;;;5034324;28;20029;-62
2022/04/26 04:08:30;;;;;;;32.70;27.52;;;9.00;99.90;;;;;;5036111;28;20434;-61
2022/04/26 04:10:56;;;;;;;31.77;27.05;;;9.00;99.90;;;;;;5036546;28;20047;-62
2022/04/26 04:13:21;;;;;;;30.48;27.17;;;9.00;99.90;;;;;;5032555;28;20033;-62
2022/04/26 04:15:47;;;;;;;32.17;26.88;;;9.00;99.90;;;;;;5035592;28;20525;-62
2022/04/26 04:20:57;;;;;;;30.45;26.13;;;8.90;99.90;;;;;;5036142;28;20457;-62
2022/04/26 04:23:23;;;;;;;30.10;27.00;;;8.90;99.90;;;;;;5034916;28;20033;-61
2022/04/26 04:25:52;;;;;;;30.30;26.98;;;8.80;99.90;;;;;;5034365;28;20028;-62
2022/04/26 04:28:17;;;;;;;31.10;27.80;;;8.90;99.90;;;;;;5031804;28;20026;-62
2022/04/26 04:30:43;;;;;;;30.88;27.52;;;8.90;99.90;;;;;;5037377;28;20044;-61
2022/04/26 04:33:09;;;;;;;32.95;27.08;;;8.80;99.90;;;;;;5034047;28;20116;-61
2022/04/26 04:35:35;;;;;;;29.48;26.38;;;8.80;99.90;;;;;;5035607;28;20153;-62
2022/04/26 04:38:01;;;;;;;29.88;26.67;;;8.80;99.90;;;;;;5035841;28;20501;-61
2022/04/26 04:40:26;;;;;;;29.90;26.23;;;8.80;99.90;;;;;;5032811;28;20044;-63
2022/04/26 04:42:52;;;;;;;32.20;26.73;;;8.80;99.90;;;;;;5035178;28;20459;-61
2022/04/26 04:45:18;;;;;;;29.13;26.00;;;8.80;99.90;;;;;;5035187;28;20033;-61
2022/04/26 04:47:45;;;;;;;29.52;26.38;;;8.90;99.90;;;;;;5035262;28;20057;-60
2022/04/26 04:50:10;;;;;;;28.15;25.08;;;8.80;99.90;;;;;;5034315;28;20037;-62
2022/04/26 04:52:36;;;;;;;29.45;25.67;;;8.80;99.90;;;;;;5034149;28;20013;-62
2022/04/26 04:55:02;;;;;;;27.10;24.00;;;8.90;99.90;;;;;;5031839;28;20175;-61
2022/04/26 04:57:28;;;;;;;29.33;24.60;;;8.90;99.90;;;;;;5037140;28;20036;-60
2022/04/26 04:59:53;;;;;;;25.67;22.98;;;8.80;99.90;;;;;;5035242;28;20048;-62
2022/04/26 05:02:19;;;;;;;29.05;23.25;;;8.90;99.90;;;;;;5033653;28;20064;-61
2022/04/26 05:04:47;;;;;;;27.98;25.02;;;8.90;99.90;;;;;;5032337;28;20078;-61
2022/04/26 05:07:12;;;;;;;26.65;23.85;;;8.90;99.90;;;;;;5015110;28;20109;-60
2022/04/26 05:09:38;;;;;;;27.83;24.10;;;8.90;99.90;;;;;;5036923;28;20112;-61
2022/04/26 05:12:05;;;;;;;30.35;27.08;;;9.00;99.90;;;;;;5035587;28;20079;-61
2022/04/26 05:14:30;;;;;;;28.90;24.25;;;9.00;99.90;;;;;;5034763;28;20516;-61
2022/04/26 05:16:56;;;;;;;30.55;27.48;;;9.00;99.90;;;;;;5034363;28;20112;-61
2022/04/26 05:19:22;;;;;;;29.70;26.63;;;9.00;99.90;;;;;;5031984;28;20490;-61
2022/04/26 05:21:47;;;;;;;31.42;28.02;;;9.00;99.90;;;;;;5035294;28;20117;-62
2022/04/26 05:26:57;;;;;;;26.00;22.67;;;9.00;99.90;;;;;;5034847;28;20036;-61
2022/04/26 05:29:23;;;;;;;26.70;23.92;;;9.00;99.90;;;;;;5034676;28;20029;-61
2022/04/26 05:31:49;;;;;;;26.10;23.48;;;9.00;99.90;;;;;;5034399;28;20029;-61
2022/04/26 05:34:15;;;;;;;25.55;22.48;;;9.10;99.90;;;;;;5030287;28;20501;-61
2022/04/26 05:36:40;;;;;;;23.70;21.27;;;9.20;99.90;;;;;;5047919;28;20025;-61
2022/04/26 05:39:06;;;;;;;21.80;19.52;;;9.20;99.90;;;;;;5035142;28;20049;-61
2022/04/26 05:41:32;;;;;;;23.73;20.58;;;9.30;99.90;;;;;;5033099;28;20079;-61
2022/04/26 05:43:57;;;;;;;23.45;19.73;;;9.40;99.90;;;;;;5032582;28;20021;-61
2022/04/26 05:46:23;;;;;;;21.90;19.60;;;9.40;99.90;;;;;;5031002;28;20037;-61
2022/04/26 05:48:49;;;;;;;21.95;17.98;;;9.50;99.90;;;;;;5034686;28;20032;-61
2022/04/26 05:51:14;;;;;;;22.67;16.90;;;9.50;99.90;;;;;;5035009;28;20026;-61
2022/04/26 05:53:40;;;;;;;22.45;17.48;;;9.60;99.90;;;;;;5034225;28;20029;-61
2022/04/26 05:56:08;;;;;;;19.27;16.15;;;9.80;99.90;;;;;;5034249;28;20029;-61
2022/04/26 05:58:34;;;;;;;17.10;15.23;;;9.90;99.90;;;;;;5031411;28;20030;-61
2022/04/26 06:01:00;;;;;;;17.25;14.82;;;10.00;99.90;;;;;;5031702;28;20029;-61
2022/04/26 06:03:26;;;;;;;14.90;13.27;;;10.20;99.90;;;;;;5036026;28;20028;-61
2022/04/26 06:05:55;;;;;;;15.02;12.63;;;11.20;99.90;;;;;;5034159;28;20033;-61
2022/04/26 06:08:22;;;;;;;12.85;10.68;;;12.80;99.90;;;;;;5034675;28;20104;-62
2022/04/26 06:10:47;;;;;;;11.30;9.48;;;13.50;99.90;;;;;;5034261;28;20035;-62
2022/04/26 06:13:13;;;;;;;12.30;8.93;;;14.20;99.90;;;;;;5029965;28;20010;-62
2022/04/26 06:15:39;;;;;;;11.90;8.85;;;14.90;99.90;;;;;;5034668;28;20044;-62
2022/04/26 06:18:04;;;;;;;10.05;7.65;;;15.70;99.90;;;;;;5034062;28;20021;-61
2022/04/26 06:20:30;;;;;;;11.88;7.90;;;16.30;99.90;;;;;;5032708;28;20401;-64
2022/04/26 06:22:56;;;;;;;12.00;7.60;;;16.20;99.90;;;;;;5032581;28;20100;-64
2022/04/26 06:25:22;;;;;;;11.57;7.43;;;16.90;99.90;;;;;;5030655;28;20026;-62
2022/04/26 06:27:48;;;;;;;10.38;7.03;;;16.40;99.90;;;;;;5034362;28;20029;-63
2022/04/26 06:30:15;;;;;;;9.00;7.10;;;16.10;99.90;;;;;;5038072;28;20057;-62
2022/04/26 06:32:44;;;;;;;10.13;7.15;;;15.80;99.90;;;;;;5038484;28;20418;-62
2022/04/26 06:35:10;;;;;;;8.52;6.20;;;16.50;99.90;;;;;;5037954;28;20494;-62
2022/04/26 06:37:36;;;;;;;10.65;6.30;;;16.90;99.90;;;;;;5036795;28;20045;-62
2022/04/26 06:40:04;;;;;;;8.27;5.82;;;18.10;99.90;;;;;;5035025;28;20044;-62
2022/04/26 06:42:30;;;;;;;8.65;6.18;;;18.40;99.90;;;;;;5039805;28;20021;-62
2022/04/26 06:44:56;;;;;;;7.13;5.95;;;18.80;99.90;;;;;;5037538;28;20079;-62
2022/04/26 06:47:21;;;;;;;6.00;5.40;;;18.30;99.90;;;;;;5038181;28;20029;-62
2022/04/26 06:49:47;;;;;;;9.57;5.47;;;18.50;99.90;;;;;;5036611;28;20056;-61
2022/04/26 06:52:14;;;;;;;6.85;5.50;;;18.50;99.90;;;;;;5017690;28;20029;-61
2022/04/26 06:54:39;;;;;;;9.70;5.78;;;18.20;99.90;;;;;;5039511;28;20036;-61
2022/04/26 06:57:06;;;;;;;9.10;5.20;;;18.80;99.90;;;;;;5037601;28;20033;-61
2022/04/26 06:59:31;;;;;;;8.40;5.30;;;20.10;99.90;;;;;;5035897;28;20026;-61
2022/04/26 07:01:57;;;;;;;8.70;5.47;;;19.60;99.90;;;;;;5035976;28;20040;-61
2022/04/26 07:04:23;;;;;;;9.38;4.95;;;20.20;99.90;;;;;;5034286;28;20060;-62
2022/04/26 07:06:49;;;;;;;7.68;5.13;;;20.80;99.90;;;;;;5037750;28;20132;-61
2022/04/26 07:09:14;;;;;;;8.43;4.97;;;20.90;99.90;;;;;;5038447;28;20033;-62
2022/04/26 07:11:42;;;;;;;6.72;4.80;;;20.40;99.90;;;;;;5037452;28;20032;-61
2022/04/26 07:14:13;;;;;;;9.63;5.40;;;20.10;99.90;;;;;;5036963;28;20040;-61
2022/04/26 07:16:38;;;;;;;7.05;4.50;;;20.20;99.90;;;;;;5036035;28;20029;-61
2022/04/26 07:19:05;;;;;;;7.07;4.60;;;20.50;99.90;;;;;;5034254;28;24367;-61
2022/04/26 07:21:31;;;;;;;6.85;4.55;;;20.80;99.90;;;;;;5039479;28;20368;-61
2022/04/26 07:23:57;;;;;;;7.88;4.60;;;22.20;99.90;;;;;;5037285;28;20026;-61
2022/04/26 07:26:23;;;;;;;5.55;4.57;;;22.00;99.90;;;;;;5037151;28;20037;-62
2022/04/26 07:28:48;;;;;;;9.43;4.45;;;23.70;98.10;;;;;;5036806;28;20130;-62
2022/04/26 07:31:14;;;;;;;7.72;4.25;;;22.50;98.20;;;;;;5033265;28;20030;-61
2022/04/26 07:36:24;;;;;;;6.22;4.05;;;23.00;98.80;;;;;;5038798;28;20052;-61
2022/04/26 07:38:50;;;;;;;6.00;3.50;;;23.00;97.40;;;;;;5035391;28;20050;-61
2022/04/26 07:41:17;;;;;;;6.32;3.60;;;23.10;97.40;;;;;;5035009;28;20036;-62
2022/04/26 07:43:44;;;;;;;5.13;3.47;;;23.40;96.40;;;;;;5036251;28;20466;-62
2022/04/26 07:46:13;;;;;;;5.72;3.70;;;23.00;96.30;;;;;;5032984;28;20018;-61
2022/04/26 07:48:42;;;;;;;4.82;3.47;;;24.10;95.10;;;;;;5038863;28;20021;-62
2022/04/26 07:51:08;;;;;;;5.47;3.42;;;24.00;95.20;;;;;;5036644;28;20064;-61
2022/04/26 07:53:34;;;;;;;7.10;3.95;;;23.70;95.60;;;;;;5036560;28;20025;-62
2022/04/26 07:56:00;;;;;;;7.00;3.60;;;24.20;93.70;;;;;;5036568;28;20033;-61
2022/04/26 07:58:26;;;;;;;8.00;3.55;;;23.50;95.70;;;;;;5033494;28;20033;-62
2022/04/26 08:00:52;;;;;;;8.07;3.67;;;24.60;93.60;;;;;;5036329;28;20036;-63
2022/04/26 08:03:20;;;;;;;5.65;3.42;;;24.30;93.60;;;;;;5037205;28;20463;-61
2022/04/26 08:05:46;;;;;;;6.63;3.78;;;24.60;93.60;;;;;;5036489;28;20033;-61
2022/04/26 08:08:12;;;;;;;5.45;3.28;;;25.00;93.00;;;;;;5036569;28;20029;-61
2022/04/26 08:10:37;;;;;;;6.40;3.42;;;25.70;92.50;;;;;;5034603;28;20021;-62
2022/04/26 08:13:03;;;;;;;6.65;3.40;;;25.20;92.30;;;;;;5033163;28;20391;-62
2022/04/26 08:15:29;;;;;;;4.68;3.58;;;26.00;92.00;;;;;;5038435;28;20064;-62
2022/04/26 08:17:55;;;;;;;4.55;3.35;;;25.80;92.00;;;;;;5034701;28;20095;-62
2022/04/26 08:20:22;;;;;;;5.30;3.38;;;24.00;93.00;;;;;;5034610;28;20040;-62
2022/04/26 08:22:48;;;;;;;6.03;3.20;;;25.20;91.70;;;;;;5036252;28;20596;-62
2022/04/26 08:27:59;;;;;;;4.72;3.30;;;24.50;92.50;;;;;;5046003;28;20056;-62
2022/04/26 08:30:24;;;;;;;5.03;3.42;;;24.10;93.30;;;;;;5037908;28;20458;-61
2022/04/26 08:32:50;;;;;;;5.10;3.33;;;25.10;92.50;;;;;;5035813;28;20029;-61
2022/04/26 08:35:22;;;;;;;6.45;3.60;;;25.30;92.00;;;;;;5035703;28;20038;-61
2022/04/26 08:37:48;;;;;;;5.90;3.20;;;25.80;92.10;;;;;;5035583;28;20083;-62
2022/04/26 08:40:14;;;;;;;7.25;3.40;;;25.90;91.80;;;;;;5031185;28;20109;-62
2022/04/26 08:42:45;;;;;;;6.13;3.28;;;23.40;92.60;;;;;;5038093;28;20025;-62
2022/04/26 08:45:21;;;;;;;6.60;3.05;;;24.80;91.70;;;;;;5034348;28;20060;-62
2022/04/26 08:53:20;;;;;;;6.53;3.38;;;25.70;90.10;;;;;;5034867;28;20083;-62
2022/04/26 08:55:48;;;;;;;4.00;2.78;;;26.00;91.20;;;;;;5033581;28;20486;-62
2022/04/26 08:58:14;;;;;;;4.38;2.67;;;26.40;89.30;;;;;;5014188;28;20053;-62
2022/04/26 09:00:59;;;;;;;6.43;3.38;;;25.00;89.50;;;;;;5037213;28;20083;-62
2022/04/26 09:03:40;;;;;;;4.43;2.80;;;25.70;90.40;;;;;;5034987;28;20026;-61
2022/04/26 09:06:08;;;;;;;5.95;2.95;;;25.50;89.70;;;;;;5035613;28;20120;-62
2022/04/26 09:08:37;;;;;;;5.65;3.17;;;25.00;90.20;;;;;;5034933;28;20021;-61
2022/04/26 09:11:18;;;;;;;6.10;3.10;;;25.70;88.20;;;;;;5035358;28;20025;-61
2022/04/26 09:13:44;;;;;;;5.70;3.10;;;25.50;90.10;;;;;;5034662;28;20071;-62
2022/04/26 09:16:17;;;;;;;6.55;2.85;;;25.10;90.60;;;;;;5029888;28;20037;-62
2022/04/26 09:18:51;;;;;;;6.25;2.72;;;24.70;90.60;;;;;;5044645;28;20021;-62
2022/04/26 09:21:17;;;;;;;7.22;2.70;;;24.60;90.40;;;;;;5035701;28;20558;-62
2022/04/26 09:23:45;;;;;;;5.93;2.75;;;24.70;89.50;;;;;;5034646;28;20116;-61
2022/04/26 09:26:13;;;;;;;5.03;2.70;;;25.00;90.10;;;;;;5034858;28;20079;-62
2022/04/26 09:28:50;;;;;;;3.75;2.60;;;25.40;90.10;;;;;;5033677;28;20489;-61
2022/04/26 09:31:28;;;;;;;7.75;3.08;;;25.10;89.70;;;;;;5015472;28;20434;-61
2022/04/26 09:34:04;;;;;;;3.25;2.63;;;25.70;88.60;;;;;;5044778;28;20067;-61
2022/04/26 09:36:35;;;;;;;5.00;2.88;;;26.10;86.60;;;;;;5035047;28;20033;-61
2022/04/26 09:39:03;;;;;;;3.75;2.50;;;27.20;87.60;;;;;;5032814;28;20076;-61
2022/04/26 09:41:30;;;;;;;5.00;2.65;;;25.30;89.40;;;;;;5035029;28;20569;-61
2022/04/26 09:44:01;;;;;;;4.50;2.58;;;24.40;89.30;;;;;;5034660;28;20390;-61
2022/04/26 09:46:48;;;;;;;4.30;2.60;;;24.00;90.80;;;;;;5031637;28;20017;-61
2022/04/26 09:49:19;;;;;;;5.40;2.65;;;24.50;90.40;;;;;;5014414;28;20507;-61
2022/04/26 09:51:46;;;;;;;5.25;2.80;;;24.80;90.40;;;;;;5044320;28;20063;-61
2022/04/26 09:54:12;;;;;;;5.70;2.88;;;24.70;90.10;;;;;;5034784;28;20121;-61
2022/04/26 09:56:41;;;;;;;3.60;2.88;;;25.30;88.80;;;;;;5034356;28;20112;-62
2022/04/26 09:59:07;;;;;;;5.07;2.78;;;24.90;89.20;;;;;;5034364;28;20175;-62
2022/04/26 10:01:42;;;;;;;3.63;2.75;;;24.50;89.00;;;;;;5032372;28;20123;-61
2022/04/26 10:04:10;;;;;;;3.83;2.92;;;25.20;89.10;;;;;;5031057;28;20049;-61
2022/04/26 10:06:38;;;;;;;4.18;3.60;;;25.70;87.30;;;;;;5035837;28;20375;-61
2022/04/26 10:09:08;;;;;;;6.57;3.70;;;25.20;87.40;;;;;;5034279;28;20164;-61
2022/04/26 10:11:34;;;;;;;4.45;2.90;;;25.00;88.50;;;;;;5034391;28;20036;-61
2022/04/26 10:14:04;;;;;;;4.32;3.10;;;24.40;89.30;;;;;;5032712;28;20032;-61
2022/04/26 10:16:31;;;;;;;6.38;2.95;;;24.60;87.70;;;;;;5029969;28;20059;-62
2022/04/26 10:19:09;;;;;;;3.60;2.55;;;24.30;88.30;;;;;;5032670;28;20025;-61
2022/04/26 10:21:38;;;;;;;4.63;2.97;;;24.80;88.80;;;;;;5034874;28;20033;-61
2022/04/26 10:24:25;;;;;;;3.47;2.67;;;25.70;87.00;;;;;;5034416;28;20121;-61
2022/04/26 10:26:52;;;;;;;3.63;2.60;;;25.50;86.30;;;;;;5034037;28;20125;-61
2022/04/26 10:29:23;;;;;;;3.53;2.53;;;24.70;87.00;;;;;;5033907;28;20029;-61
2022/04/26 10:32:00;;;;;;;3.55;2.60;;;24.60;88.10;;;;;;5034101;28;20031;-61
2022/04/26 10:34:31;;;;;;;3.70;2.60;;;24.40;87.00;;;;;;5030737;28;20028;-61
2022/04/26 10:36:59;;;;;;;4.60;2.80;;;24.30;89.50;;;;;;5032216;28;20040;-61
2022/04/26 10:39:26;;;;;;;6.22;2.85;;;24.10;89.30;;;;;;5035589;28;20037;-61
2022/04/26 10:41:53;;;;;;;4.40;2.80;;;24.10;89.80;;;;;;5034353;28;20068;-61
2022/04/26 10:44:22;;;;;;;4.13;2.78;;;24.00;90.10;;;;;;5034067;28;20025;-61
2022/04/26 10:47:08;;;;;;;4.30;2.70;;;24.30;87.30;;;;;;5033911;28;20029;-62
2022/04/26 10:49:39;;;;;;;4.18;2.40;;;23.80;87.80;;;;;;5018712;28;20430;-61
2022/04/26 10:52:26;;;;;;;3.25;2.50;;;24.40;86.20;;;;;;5030505;28;20072;-61
2022/04/26 10:54:55;;;;;;;3.13;2.50;;;24.10;85.90;;;;;;5043529;28;20047;-61
2022/04/26 10:57:26;;;;;;;3.65;2.40;;;24.50;88.40;;;;;;5035011;28;20467;-61
2022/04/26 10:59:56;;;;;;;3.75;2.42;;;25.30;87.60;;;;;;5033727;28;20554;-61
2022/04/26 11:02:23;;;;;;;5.10;2.75;;;25.30;87.90;;;;;;5033682;28;20029;-61
2022/04/26 11:05:13;;;;;;;2.80;2.30;;;24.40;87.20;;;;;;5033422;28;20025;-61
2022/04/26 11:07:41;;;;;;;3.20;2.30;;;23.90;87.60;;;;;;5031424;28;20394;-61
2022/04/26 11:10:08;;;;;;;4.40;2.45;;;23.30;88.60;;;;;;5030541;28;20648;-61
2022/04/26 11:12:37;;;;;;;2.80;2.30;;;23.30;88.20;;;;;;5035455;28;20041;-61
2022/04/26 11:15:06;;;;;;;4.18;2.53;;;23.50;87.60;;;;;;5035046;28;20065;-61
2022/04/26 11:17:32;;;;;;;3.88;2.35;;;24.10;88.90;;;;;;5037160;28;20087;-61
2022/04/26 11:20:03;;;;;;;2.97;2.45;;;24.60;86.00;;;;;;5036826;28;20021;-61
2022/04/26 11:22:29;;;;;;;5.07;2.33;;;24.00;85.70;;;;;;5034405;28;20088;-61
2022/04/26 11:28:05;;;;;;;4.90;2.33;;;23.70;86.00;;;;;;5047668;28;20091;-61
2022/04/26 11:30:33;;;;;;;4.18;2.50;;;23.70;86.20;;;;;;5038993;28;20018;-61
2022/04/26 11:33:01;;;;;;;4.15;2.92;;;23.80;86.90;;;;;;5035639;28;20064;-61
2022/04/26 11:35:28;;;;;;;5.72;2.78;;;24.20;87.20;;;;;;5034977;28;20041;-61
2022/04/26 11:37:57;;;;;;;5.45;2.40;;;24.60;86.50;;;;;;5036609;28;20077;-61
2022/04/26 11:40:27;;;;;;;3.63;2.50;;;24.20;86.20;;;;;;5033440;28;20483;-61
2022/04/26 11:42:56;;;;;;;5.35;2.53;;;23.60;86.70;;;;;;5036916;28;20028;-61
2022/04/26 11:45:23;;;;;;;5.20;2.33;;;24.10;85.40;;;;;;5038016;28;20116;-61
2022/04/26 11:47:50;;;;;;;2.78;2.00;;;24.10;85.00;;;;;;5036652;28;20017;-61
2022/04/26 11:50:17;;;;;;;4.80;2.17;;;23.60;86.50;;;;;;5036292;28;20116;-61
2022/04/26 11:52:44;;;;;;;4.28;2.33;;;23.50;85.90;;;;;;5036103;28;20017;-61
2022/04/26 11:55:25;;;;;;;3.60;2.30;;;23.50;87.00;;;;;;5032720;28;20040;-62
2022/04/26 11:57:53;;;;;;;4.18;2.55;;;23.70;86.20;;;;;;5046446;28;20021;-61
2022/04/26 12:00:21;;;;;;;2.70;2.13;;;23.60;87.40;;;;;;5037327;28;20088;-61
2022/04/26 12:02:48;;;;;;;6.55;2.40;;;23.20;86.70;;;;;;5035925;28;20097;-61
2022/04/26 12:05:21;;;;;;;3.80;2.47;;;23.40;87.10;;;;;;5036219;28;20045;-61
2022/04/26 12:07:48;;;;;;;4.03;2.35;;;23.90;86.80;;;;;;5036074;28;20071;-61
2022/04/26 12:10:32;;;;;;;5.35;2.08;;;23.70;87.10;;;;;;5031077;28;20428;-61
2022/04/26 12:13:02;;;;;;;4.68;2.47;;;23.80;86.70;;;;;;5047004;28;20071;-61
2022/04/26 12:15:32;;;;;;;3.92;2.45;;;24.00;87.70;;;;;;5035722;28;20541;-61
2022/04/26 12:18:02;;;;;;;3.92;2.28;;;23.30;88.30;;;;;;5035708;28;20024;-61
2022/04/26 12:20:28;;;;;;;3.20;2.35;;;23.90;85.60;;;;;;5036037;28;20043;-61
2022/04/26 12:22:54;;;;;;;3.88;2.28;;;24.00;85.00;;;;;;5036513;28;20013;-61
2022/04/26 12:25:20;;;;;;;4.32;2.10;;;24.40;83.70;;;;;;5031916;28;20033;-60
2022/04/26 12:28:01;;;;;;;4.95;2.45;;;24.10;85.20;;;;;;5036325;28;20033;-61
2022/04/26 12:30:30;;;;;;;3.90;2.40;;;24.30;84.90;;;;;;5035716;28;20037;-61
2022/04/26 12:32:57;;;;;;;4.13;2.47;;;24.40;84.80;;;;;;5035570;28;20087;-61
2022/04/26 12:35:22;;;;;;;3.53;2.05;;;24.50;85.00;;;;;;5035746;28;20033;-61
2022/04/26 12:38:09;;;;;;;4.20;2.30;;;24.20;83.70;;;;;;5036067;28;20041;-61
2022/04/26 12:40:35;;;;;;;3.33;2.00;;;24.10;85.60;;;;;;5020584;28;20052;-61
2022/04/26 12:43:02;;;;;;;6.90;2.28;;;23.90;84.00;;;;;;5033073;28;20083;-61
2022/04/26 12:45:28;;;;;;;2.92;2.20;;;23.90;85.20;;;;;;5035283;28;20041;-60
2022/04/26 12:51:11;;;;;;;2.80;1.98;;;24.10;85.40;;;;;;5034129;28;20127;-61
2022/04/26 12:53:36;;;;;;;3.80;2.10;;;24.60;86.60;;;;;;5033850;28;20029;-61
2022/04/26 12:56:07;;;;;;;2.88;2.35;;;24.50;85.00;;;;;;5035718;28;20521;-61
2022/04/26 12:58:38;;;;;;;2.80;2.05;;;24.20;84.10;;;;;;5031443;28;20104;-61
2022/04/26 13:01:05;;;;;;;2.72;2.00;;;23.80;84.40;;;;;;5032540;28;20544;-61
2022/04/26 13:03:32;;;;;;;4.07;2.20;;;23.90;84.50;;;;;;5037199;28;20030;-60
2022/04/26 13:06:11;;;;;;;3.17;1.95;;;24.30;84.40;;;;;;5035131;28;20041;-62
2022/04/26 13:08:38;;;;;;;3.88;2.13;;;23.50;86.00;;;;;;5035084;28;20529;-60
2022/04/26 13:11:04;;;;;;;2.83;1.95;;;23.70;84.80;;;;;;5035270;28;20024;-60
2022/04/26 13:13:31;;;;;;;4.05;2.30;;;24.10;84.90;;;;;;5032446;28;20049;-60
2022/04/26 13:15:56;;;;;;;5.43;2.42;;;24.00;84.20;;;;;;5033840;28;20091;-60
2022/04/26 13:18:22;;;;;;;3.35;2.10;;;24.00;81.90;;;;;;5036319;28;20045;-61
2022/04/26 13:20:48;;;;;;;3.90;2.20;;;24.00;85.60;;;;;;5035001;28;20063;-60
2022/04/26 13:23:15;;;;;;;3.63;2.05;;;24.20;85.10;;;;;;5034888;28;20065;-60
2022/04/26 13:25:42;;;;;;;3.55;2.00;;;24.10;83.60;;;;;;5033791;28;20393;-60
2022/04/26 13:28:08;;;;;;;3.40;1.85;;;24.20;85.10;;;;;;5031265;28;20061;-60
2022/04/26 13:30:34;;;;;;;3.83;2.17;;;24.70;82.20;;;;;;5035651;28;20521;-60
2022/04/26 13:33:01;;;;;;;4.43;2.15;;;24.60;84.20;;;;;;5033339;28;20022;-60
2022/04/26 13:35:27;;;;;;;6.22;2.20;;;24.30;84.30;;;;;;5034671;28;20048;-60
2022/04/26 13:38:01;;;;;;;5.55;1.80;;;24.20;86.50;;;;;;5034109;28;20086;-61
2022/04/26 13:40:27;;;;;;;3.95;1.95;;;24.20;84.20;;;;;;5031930;28;20083;-61
2022/04/26 13:42:53;;;;;;;3.53;2.00;;;24.20;85.10;;;;;;5034433;28;20029;-61
2022/04/26 13:45:20;;;;;;;2.85;1.88;;;23.90;83.70;;;;;;5035063;28;20026;-60
2022/04/26 13:47:46;;;;;;;2.22;1.50;;;24.00;82.80;;;;;;5034538;28;20029;-60
2022/04/26 13:50:12;;;;;;;2.88;2.00;;;24.10;83.60;;;;;;5033396;28;20029;-60
2022/04/26 13:52:40;;;;;;;6.85;2.10;;;23.60;82.50;;;;;;5033010;28;20041;-60
2022/04/26 13:55:07;;;;;;;4.38;2.13;;;24.00;85.60;;;;;;5031062;28;20120;-60
2022/04/26 13:57:33;;;;;;;3.33;2.20;;;24.00;85.20;;;;;;5036267;28;20029;-61
2022/04/26 13:59:59;;;;;;;3.10;2.10;;;23.80;86.30;;;;;;5034129;28;20025;-60
2022/04/26 14:02:25;;;;;;;2.60;1.90;;;23.80;85.50;;;;;;5034518;28;20029;-61
2022/04/26 14:04:50;;;;;;;6.15;2.20;;;23.70;86.20;;;;;;5034302;28;20440;-60
2022/04/26 14:07:17;;;;;;;5.43;2.20;;;24.10;85.20;;;;;;5029217;28;20034;-62
2022/04/26 14:09:43;;;;;;;4.50;2.20;;;24.10;84.90;;;;;;5043232;28;20497;-59
2022/04/26 14:12:11;;;;;;;4.30;2.20;;;23.80;84.90;;;;;;5032860;28;20091;-60
2022/04/26 14:22:50;;;;;;;3.22;2.08;;;24.20;85.30;;;;;;5034357;28;20035;-60
2022/04/26 14:25:16;;;;;;;3.40;2.55;;;24.20;85.30;;;;;;5029295;28;20022;-60
2022/04/26 14:27:45;;;;;;;5.50;2.78;;;24.00;85.90;;;;;;5036048;28;20041;-60
2022/04/26 14:30:12;;;;;;;5.22;2.47;;;24.10;86.10;;;;;;5033916;28;20091;-60
2022/04/26 14:32:38;;;;;;;4.82;2.10;;;24.10;86.80;;;;;;5034396;28;20120;-60
2022/04/26 14:35:04;;;;;;;3.88;2.03;;;24.00;86.40;;;;;;5034068;28;20132;-60
2022/04/26 14:37:33;;;;;;;5.97;2.15;;;23.80;86.40;;;;;;5031328;28;20033;-60
2022/04/26 14:39:58;;;;;;;3.65;2.35;;;24.00;88.40;;;;;;5032185;28;20030;-61
2022/04/26 14:42:24;;;;;;;5.75;2.70;;;23.30;86.50;;;;;;5034983;28;20112;-60
2022/04/26 14:44:50;;;;;;;2.72;2.25;;;23.80;87.30;;;;;;5033814;28;20029;-60
2022/04/26 14:47:16;;;;;;;3.25;2.25;;;23.80;87.30;;;;;;5032814;28;20116;-60
2022/04/26 14:49:42;;;;;;;5.40;2.47;;;23.70;86.30;;;;;;5032291;28;20441;-60
2022/04/26 14:52:09;;;;;;;4.57;2.38;;;23.80;87.20;;;;;;5034355;28;20519;-60
2022/04/26 14:54:35;;;;;;;4.82;2.35;;;23.80;86.20;;;;;;5039441;28;20072;-60
2022/04/26 14:57:01;;;;;;;2.50;2.20;;;23.90;85.40;;;;;;5037489;28;20425;-61
2022/04/26 14:59:28;;;;;;;3.92;2.20;;;24.20;86.00;;;;;;5036343;28;20029;-60
2022/04/26 15:01:54;;;;;;;5.80;2.30;;;23.80;86.00;;;;;;5037520;28;20039;-61
2022/04/26 15:04:21;;;;;;;2.72;2.05;;;24.10;85.80;;;;;;5033690;28;20021;-61
2022/04/26 15:06:48;;;;;;;3.67;2.10;;;24.20;85.20;;;;;;5038840;28;20410;-61
2022/04/26 15:17:30;;;;;;;2.95;1.90;;;23.80;86.00;;;;;;5037346;28;20456;-61
2022/04/26 15:19:56;;;;;;;5.85;2.35;;;23.80;86.80;;;;;;5037310;28;20051;-60
2022/04/26 15:22:23;;;;;;;3.00;2.25;;;23.50;85.80;;;;;;5033752;28;20032;-61
2022/04/26 15:24:50;;;;;;;5.07;2.10;;;23.60;85.40;;;;;;5038449;28;20021;-61
2022/04/26 15:27:18;;;;;;;4.85;2.65;;;23.70;85.00;;;;;;5035922;28;20033;-60
2022/04/26 15:29:45;;;;;;;4.45;2.22;;;23.70;85.50;;;;;;5035618;28;20025;-61
2022/04/26 15:32:11;;;;;;;4.32;2.00;;;23.60;84.80;;;;;;5036978;28;20072;-61
2022/04/26 15:34:37;;;;;;;3.88;2.20;;;23.70;85.20;;;;;;5035619;28;20064;-60
2022/04/26 15:37:04;;;;;;;3.85;1.95;;;23.80;85.30;;;;;;5034364;28;20485;-61
2022/04/26 15:39:30;;;;;;;3.08;1.90;;;23.80;83.80;;;;;;5037449;28;20057;-61
2022/04/26 15:41:56;;;;;;;3.90;2.00;;;23.80;85.20;;;;;;5036504;28;20173;-61
2022/04/26 15:44:23;;;;;;;3.60;1.92;;;23.40;83.20;;;;;;5036670;28;20041;-60
2022/04/26 15:46:52;;;;;;;5.13;1.90;;;23.40;83.60;;;;;;5036990;28;20041;-61
2022/04/26 15:49:21;;;;;;;4.28;2.03;;;23.50;84.50;;;;;;5017033;28;20123;-61
2022/04/26 15:51:50;;;;;;;2.65;1.80;;;23.50;84.00;;;;;;5038258;28;20061;-61
2022/04/26 15:54:16;;;;;;;4.95;2.20;;;23.40;85.40;;;;;;5035431;28;20029;-61
2022/04/26 15:56:45;;;;;;;4.75;2.30;;;23.60;84.10;;;;;;5036515;28;20421;-61
2022/04/26 15:59:12;;;;;;;3.95;2.00;;;23.60;84.90;;;;;;5036683;28;20021;-60
2022/04/26 16:01:42;;;;;;;4.75;2.03;;;23.50;83.90;;;;;;5034772;28;20037;-60
2022/04/26 16:04:12;;;;;;;4.60;2.45;;;23.40;84.50;;;;;;5033329;28;20036;-60
2022/04/26 16:06:39;;;;;;;3.30;2.50;;;23.60;84.70;;;;;;5036669;28;20033;-60
2022/04/26 16:22:49;;;;;;;3.30;1.90;;;23.60;83.80;;;;;;5036267;28;20098;-60
2022/04/26 16:25:15;;;;;;;3.33;1.80;;;23.50;84.00;;;;;;5031815;28;20029;-61
2022/04/26 16:27:42;;;;;;;4.22;2.03;;;23.60;84.80;;;;;;5038020;28;20037;-61
2022/04/26 16:30:11;;;;;;;6.30;2.33;;;23.60;84.80;;;;;;5035880;28;20025;-61
2022/04/26 16:32:38;;;;;;;4.30;2.28;;;23.40;84.30;;;;;;5035890;28;20026;-60
2022/04/26 16:35:06;;;;;;;2.90;2.22;;;23.30;84.50;;;;;;5035975;28;20408;-60
2022/04/26 16:37:32;;;;;;;2.00;1.83;;;23.40;83.60;;;;;;5033193;28;20021;-60
2022/04/26 16:39:57;;;;;;;2.90;2.03;;;23.30;83.80;;;;;;5034755;28;20036;-60
2022/04/26 16:42:23;;;;;;;4.57;1.90;;;23.40;84.40;;;;;;5037050;28;20022;-60
2022/04/26 16:44:49;;;;;;;4.50;1.90;;;23.40;84.70;;;;;;5034270;28;20044;-61
2022/04/26 16:47:14;;;;;;;3.47;2.30;;;23.50;83.70;;;;;;5034288;28;20029;-60
2022/04/26 16:49:40;;;;;;;4.35;2.17;;;23.40;84.70;;;;;;5034374;28;20037;-61
2022/04/26 16:52:06;;;;;;;3.58;2.00;;;23.30;84.20;;;;;;5032433;28;20410;-60
2022/04/26 16:54:32;;;;;;;2.67;1.80;;;23.30;85.20;;;;;;5036887;28;20482;-61
2022/04/26 16:56:58;;;;;;;4.68;2.22;;;23.20;85.20;;;;;;5035834;28;20034;-60
2022/04/26 16:59:24;;;;;;;3.45;2.13;;;23.00;84.70;;;;;;5035427;28;20032;-60
2022/04/26 17:01:51;;;;;;;5.10;2.45;;;23.00;85.30;;;;;;5035682;28;20162;-60
2022/04/26 17:04:17;;;;;;;4.38;2.10;;;23.00;85.40;;;;;;5015308;28;20026;-62
2022/04/26 17:06:43;;;;;;;6.07;2.60;;;23.00;86.60;;;;;;5037044;28;20029;-61
2022/04/26 17:09:10;;;;;;;8.57;2.10;;;23.00;85.60;;;;;;5035010;28;20114;-61
2022/04/26 17:11:42;;;;;;;4.55;2.30;;;23.00;86.70;;;;;;5035516;28;20065;-61
2022/04/26 17:14:11;;;;;;;3.58;1.90;;;22.90;85.50;;;;;;5032822;28;20505;-61
2022/04/26 17:16:37;;;;;;;3.22;2.10;;;22.80;86.20;;;;;;5033577;28;20038;-60